createdAt,value
2022-09-01T00:01:41.558Z,15.88
2022-09-01T00:04:33.583Z,15.24
2022-09-01T00:07:25.671Z,14.80
2022-09-01T00:10:18.139Z,14.77
2022-09-01T00:13:10.730Z,15.90
2022-09-01T00:16:04.398Z,16.77
2022-09-01T00:18:57.061Z,17.24
2022-09-01T00:21:50.016Z,17.50
2022-09-01T00:24:42.085Z,17.52
2022-09-01T00:27:34.275Z,16.65
2022-09-01T00:30:26.571Z,15.84
2022-09-01T00:33:18.750Z,15.23
2022-09-01T00:36:12.361Z,14.76
2022-09-01T00:39:05.732Z,14.67
2022-09-01T00:41:59.661Z,15.51
2022-09-01T00:44:54.371Z,16.20
2022-09-01T00:47:46.479Z,16.58
2022-09-01T00:50:39.832Z,16.72
2022-09-01T00:53:32.635Z,17.00
2022-09-01T00:56:15.558Z,17.30
2022-09-01T00:59:08.833Z,17.37
2022-09-01T01:02:01.092Z,16.52
2022-09-01T01:04:53.372Z,15.70
2022-09-01T01:07:47.476Z,15.08
2022-09-01T01:10:42.282Z,14.59
2022-09-01T01:13:49.498Z,14.50
2022-09-01T01:16:45.241Z,15.55
2022-09-01T01:20:01.373Z,16.31
2022-09-01T01:23:05.802Z,16.91
2022-09-01T01:26:00.674Z,17.01
2022-09-01T01:28:52.786Z,16.80
2022-09-01T01:31:49.763Z,16.00
2022-09-01T01:34:48.617Z,15.25
2022-09-01T01:37:40.930Z,14.63
2022-09-01T01:40:34.215Z,14.46
2022-09-01T01:43:29.113Z,15.41
2022-09-01T01:46:22.804Z,16.14
2022-09-01T01:49:08.221Z,16.60
2022-09-01T01:52:01.358Z,16.94
2022-09-01T01:54:53.861Z,17.20
2022-09-01T01:57:50.104Z,17.15
2022-09-01T02:00:44.249Z,16.27
2022-09-01T02:03:38.703Z,15.49
2022-09-01T02:06:33.456Z,14.82
2022-09-01T02:09:25.463Z,14.29
2022-09-01T02:12:19.767Z,14.14
2022-09-01T02:15:13.260Z,15.14
2022-09-01T02:17:49.032Z,15.74
2022-09-01T02:20:41.149Z,16.25
2022-09-01T02:23:33.875Z,16.61
2022-09-01T02:26:16.128Z,16.86
2022-09-01T02:29:18.120Z,16.75
2022-09-01T02:32:11.792Z,15.76
2022-09-01T02:35:07.375Z,14.90
2022-09-01T02:38:00.479Z,14.26
2022-09-01T02:40:53.762Z,14.07
2022-09-01T02:43:46.342Z,15.17
2022-09-01T02:46:41.867Z,15.98
2022-09-01T02:49:34.540Z,16.40
2022-09-01T02:52:27.014Z,16.79
2022-09-01T02:55:21.131Z,17.05
2022-09-01T02:58:20.398Z,16.94
2022-09-01T03:01:20.592Z,15.90
2022-09-01T03:04:13.967Z,14.99
2022-09-01T03:07:08.062Z,14.30
2022-09-01T03:10:00.262Z,14.19
2022-09-01T03:12:52.556Z,15.31
2022-09-01T03:15:45.528Z,16.13
2022-09-01T03:18:38.010Z,16.57
2022-09-01T03:21:32.671Z,16.88
2022-09-01T03:24:24.718Z,16.81
2022-09-01T03:27:16.873Z,15.89
2022-09-01T03:30:11.042Z,15.03
2022-09-01T03:33:05.188Z,14.37
2022-09-01T03:35:58.119Z,13.85
2022-09-01T03:38:51.599Z,13.84
2022-09-01T03:41:43.652Z,15.09
2022-09-01T03:44:34.089Z,16.05
2022-09-01T03:47:27.429Z,16.65
2022-09-01T03:50:21.371Z,17.04
2022-09-01T03:53:14.990Z,17.03
2022-09-01T03:56:09.088Z,16.02
2022-09-01T03:59:02.184Z,15.07
2022-09-01T04:01:54.297Z,14.38
2022-09-01T04:04:46.637Z,14.19
2022-09-01T04:07:38.663Z,15.05
2022-09-01T04:10:31.243Z,15.73
2022-09-01T04:13:26.284Z,16.30
2022-09-01T04:16:41.119Z,16.61
2022-09-01T04:19:39.596Z,16.79
2022-09-01T04:22:32.147Z,16.99
2022-09-01T04:25:26.802Z,17.00
2022-09-01T04:28:17.757Z,16.09
2022-09-01T04:31:18.779Z,15.13
2022-09-01T04:34:13.939Z,14.44
2022-09-01T04:36:49.950Z,14.28
2022-09-01T04:39:55.728Z,15.33
2022-09-01T04:42:48.442Z,16.38
2022-09-01T04:45:41.235Z,16.95
2022-09-01T04:48:36.087Z,17.40
2022-09-01T04:51:29.000Z,17.48
2022-09-01T04:54:22.738Z,16.63
2022-09-01T04:57:16.720Z,15.75
2022-09-01T05:00:22.438Z,15.07
2022-09-01T05:03:15.202Z,14.59
2022-09-01T05:06:15.967Z,14.61
2022-09-01T05:09:09.923Z,15.71
2022-09-01T05:12:16.946Z,16.58
2022-09-01T05:15:13.736Z,17.20
2022-09-01T05:18:28.198Z,17.66
2022-09-01T05:21:24.756Z,17.95
2022-09-01T05:30:11.743Z,16.24
2022-09-01T05:32:59.882Z,15.67
2022-09-01T05:36:00.035Z,15.23
2022-09-01T05:38:52.758Z,15.17
2022-09-01T05:41:49.966Z,16.06
2022-09-01T05:44:45.085Z,16.91
2022-09-01T05:47:22.317Z,17.57
2022-09-01T05:50:16.700Z,18.18
2022-09-01T05:52:51.207Z,18.41
2022-09-01T05:55:44.000Z,17.81
2022-09-01T06:01:53.492Z,16.64
2022-09-01T06:04:47.253Z,16.27
2022-09-01T06:07:28.687Z,16.05
2022-09-01T06:10:21.230Z,15.86
2022-09-01T06:13:16.081Z,16.00
2022-09-01T06:16:09.354Z,17.43
2022-09-01T06:19:00.752Z,18.76
2022-09-01T06:21:53.517Z,19.27
2022-09-01T06:24:34.796Z,18.67
2022-09-01T06:27:27.285Z,18.05
2022-09-01T06:30:24.418Z,17.68
2022-09-01T06:33:26.526Z,17.42
2022-09-01T06:36:22.275Z,17.23
2022-09-01T06:39:20.013Z,17.04
2022-09-01T06:41:58.287Z,16.90
2022-09-01T06:44:40.709Z,16.80
2022-09-01T06:47:33.206Z,16.75
2022-09-01T06:53:35.267Z,16.82
2022-09-01T06:56:32.240Z,16.92
2022-09-01T06:59:43.749Z,16.85
2022-09-01T07:02:39.811Z,16.72
2022-09-01T07:06:00.885Z,16.58
2022-09-01T07:09:46.976Z,16.48
2022-09-01T07:12:25.949Z,16.46
2022-09-01T07:18:31.066Z,16.33
2022-09-01T07:21:42.401Z,16.18
2022-09-01T07:24:36.339Z,16.56
2022-09-01T07:27:35.610Z,17.99
2022-09-01T07:30:28.937Z,19.14
2022-09-01T07:37:16.145Z,18.82
2022-09-01T07:39:51.568Z,18.26
2022-09-01T07:46:00.444Z,17.79
2022-09-01T07:51:53.027Z,17.65
2022-09-01T07:54:46.252Z,17.60
2022-09-01T07:57:38.293Z,17.62
2022-09-01T08:00:31.846Z,17.65
2022-09-01T08:03:26.461Z,17.60
2022-09-01T08:06:20.929Z,17.58
2022-09-01T08:09:07.508Z,17.61
2022-09-01T08:12:05.280Z,17.70
2022-09-01T08:17:56.333Z,17.79
2022-09-01T08:20:45.565Z,17.91
2022-09-01T08:23:48.012Z,18.06
2022-09-01T08:26:40.410Z,18.18
2022-09-01T08:29:32.703Z,18.29
2022-09-01T08:32:25.353Z,18.41
2022-09-01T08:34:58.415Z,18.47
2022-09-01T08:37:51.224Z,18.54
2022-09-01T08:40:44.493Z,18.65
2022-09-01T08:43:51.694Z,18.77
2022-09-01T08:46:45.272Z,18.91
2022-09-01T08:49:46.169Z,19.01
2022-09-01T08:52:53.147Z,19.12
2022-09-01T08:55:51.087Z,19.20
2022-09-01T08:58:44.083Z,19.30
2022-09-01T09:01:52.540Z,19.43
2022-09-01T09:04:56.507Z,19.55
2022-09-01T09:08:08.238Z,19.66
2022-09-01T09:10:59.780Z,19.72
2022-09-01T09:14:04.018Z,19.82
2022-09-01T09:16:43.196Z,19.88
2022-09-01T09:19:38.347Z,19.96
2022-09-01T09:22:31.860Z,20.03
2022-09-01T09:25:19.290Z,20.04
2022-09-01T09:28:14.382Z,20.07
2022-09-01T09:31:31.691Z,20.18
2022-09-01T09:34:33.344Z,20.33
2022-09-01T09:37:30.381Z,20.43
2022-09-01T09:40:25.381Z,20.54
2022-09-01T09:43:19.277Z,20.73
2022-09-01T09:46:25.554Z,20.90
2022-09-01T09:49:14.731Z,21.07
2022-09-01T09:52:19.397Z,21.25
2022-09-01T09:55:25.373Z,21.44
2022-09-01T09:58:17.515Z,21.67
2022-09-01T10:01:17.396Z,21.80
2022-09-01T10:04:10.198Z,21.66
2022-09-01T10:07:02.583Z,21.46
2022-09-01T10:09:56.138Z,21.42
2022-09-01T10:12:36.462Z,21.49
2022-09-01T10:15:30.602Z,21.62
2022-09-01T10:18:20.017Z,21.78
2022-09-01T10:20:59.443Z,21.93
2022-09-01T10:23:41.393Z,21.98
2022-09-01T10:26:37.414Z,21.91
2022-09-01T10:29:35.157Z,21.77
2022-09-01T10:32:38.666Z,21.57
2022-09-01T10:35:24.041Z,21.55
2022-09-01T10:38:11.118Z,21.72
2022-09-01T10:41:07.806Z,21.94
2022-09-01T10:44:11.802Z,22.05
2022-09-01T10:46:51.302Z,21.96
2022-09-01T10:50:07.616Z,21.83
2022-09-01T10:53:05.368Z,21.81
2022-09-01T10:56:18.230Z,21.96
2022-09-01T10:59:37.442Z,22.24
2022-09-01T11:02:42.089Z,22.59
2022-09-01T11:06:12.178Z,22.90
2022-09-01T11:09:07.908Z,23.39
2022-09-01T11:12:02.065Z,23.63
2022-09-01T11:14:56.775Z,23.80
2022-09-01T11:17:41.533Z,23.61
2022-09-01T11:20:37.418Z,23.34
2022-09-01T11:23:12.858Z,23.17
2022-09-01T11:26:25.782Z,22.96
2022-09-01T11:29:48.313Z,22.69
2022-09-01T11:32:46.346Z,22.46
2022-09-01T11:35:39.093Z,22.34
2022-09-01T11:38:39.330Z,22.35
2022-09-01T11:41:36.270Z,22.43
2022-09-01T11:44:33.059Z,22.51
2022-09-01T11:47:29.613Z,22.56
2022-09-01T11:50:26.541Z,22.52
2022-09-01T11:53:24.200Z,22.37
2022-09-01T11:56:20.189Z,22.21
2022-09-01T11:59:12.446Z,22.08
2022-09-01T12:02:04.173Z,21.98
2022-09-01T12:04:57.296Z,21.95
2022-09-01T12:07:50.242Z,22.00
2022-09-01T12:10:44.436Z,22.09
2022-09-01T12:13:37.128Z,22.16
2022-09-01T12:16:30.678Z,22.12
2022-09-01T12:19:28.496Z,22.06
2022-09-01T12:22:18.601Z,21.99
2022-09-01T12:25:22.807Z,22.08
2022-09-01T12:28:15.235Z,22.35
2022-09-01T12:30:50.078Z,22.58
2022-09-01T12:33:43.661Z,22.80
2022-09-01T12:36:38.754Z,23.07
2022-09-01T12:39:36.879Z,23.35
2022-09-01T12:42:41.485Z,23.65
2022-09-01T12:45:47.491Z,23.72
2022-09-01T12:48:34.116Z,23.57
2022-09-01T12:51:26.573Z,23.42
2022-09-01T12:54:28.138Z,23.22
2022-09-01T12:57:27.980Z,23.11
2022-09-01T13:00:23.362Z,23.09
2022-09-01T13:03:18.022Z,23.07
2022-09-01T13:06:05.012Z,23.05
2022-09-01T13:08:49.839Z,23.07
2022-09-01T13:14:35.030Z,23.11
2022-09-01T13:17:13.873Z,22.77
2022-09-01T13:20:07.754Z,22.37
2022-09-01T13:23:00.261Z,22.08
2022-09-01T13:25:44.406Z,21.90
2022-09-01T13:28:38.954Z,21.71
2022-09-01T13:31:29.634Z,21.57
2022-09-01T13:34:24.039Z,21.36
2022-09-01T13:37:16.462Z,21.20
2022-09-01T13:40:16.572Z,21.14
2022-09-01T13:42:51.447Z,21.02
2022-09-01T13:45:45.002Z,21.02
2022-09-01T13:51:55.018Z,21.41
2022-09-01T13:54:39.849Z,21.64
2022-09-01T13:57:35.800Z,21.83
2022-09-01T14:00:32.126Z,21.99
2022-09-01T14:03:25.537Z,22.15
2022-09-01T14:06:18.066Z,22.22
2022-09-01T14:09:12.541Z,22.28
2022-09-01T14:12:07.386Z,22.34
2022-09-01T14:15:17.604Z,22.36
2022-09-01T14:18:10.526Z,22.35
2022-09-01T14:20:54.707Z,22.37
2022-09-01T14:23:47.290Z,22.42
2022-09-01T14:26:39.332Z,22.44
2022-09-01T14:29:31.516Z,22.44
2022-09-01T14:32:27.234Z,22.38
2022-09-01T14:35:24.186Z,22.32
2022-09-01T14:38:17.191Z,22.36
2022-09-01T14:41:09.596Z,22.37
2022-09-01T14:44:02.821Z,22.37
2022-09-01T14:46:55.473Z,22.40
2022-09-01T14:49:46.854Z,22.46
2022-09-01T14:52:37.634Z,22.51
2022-09-01T14:55:31.995Z,22.50
2022-09-01T14:58:25.346Z,22.45
2022-09-01T15:01:33.837Z,22.37
2022-09-01T15:04:27.948Z,22.33
2022-09-01T15:07:20.096Z,22.25
2022-09-01T15:10:23.433Z,22.10
2022-09-01T15:13:17.695Z,22.01
2022-09-01T15:19:15.212Z,22.00
2022-09-01T15:22:08.515Z,22.00
2022-09-01T15:25:00.580Z,22.01
2022-09-01T15:27:52.784Z,22.00
2022-09-01T15:30:46.369Z,21.98
2022-09-01T15:33:38.602Z,22.02
2022-09-01T15:36:31.964Z,22.04
2022-09-01T15:39:24.066Z,22.03
2022-09-01T15:42:10.694Z,21.98
2022-09-01T15:44:55.446Z,21.94
2022-09-01T15:47:49.342Z,21.87
2022-09-01T15:50:41.409Z,21.69
2022-09-01T15:53:16.055Z,21.49
2022-09-01T15:56:08.409Z,21.35
2022-09-01T15:59:02.307Z,21.25
2022-09-01T16:01:47.098Z,21.18
2022-09-01T16:04:40.177Z,21.11
2022-09-01T16:07:26.602Z,20.94
2022-09-01T16:10:18.734Z,20.75
2022-09-01T16:13:13.212Z,20.65
2022-09-01T16:16:14.708Z,20.71
2022-09-01T16:19:15.994Z,21.01
2022-09-01T16:22:17.589Z,21.42
2022-09-01T16:25:15.861Z,21.72
2022-09-01T16:28:23.520Z,21.99
2022-09-01T16:31:17.985Z,22.22
2022-09-01T16:34:18.418Z,22.41
2022-09-01T16:37:01.036Z,22.54
2022-09-01T16:39:58.674Z,22.69
2022-09-01T16:42:58.108Z,22.79
2022-09-01T16:46:01.992Z,22.90
2022-09-01T16:49:00.668Z,22.89
2022-09-01T16:52:02.096Z,22.64
2022-09-01T16:54:48.667Z,22.26
2022-09-01T16:57:49.343Z,21.88
2022-09-01T17:00:52.596Z,21.42
2022-09-01T17:03:57.529Z,20.81
2022-09-01T17:06:58.224Z,20.23
2022-09-01T17:09:58.357Z,19.74
2022-09-01T17:12:52.925Z,19.34
2022-09-01T17:15:48.167Z,18.99
2022-09-01T17:18:44.462Z,18.64
2022-09-01T17:21:41.817Z,18.31
2022-09-01T17:24:38.606Z,18.01
2022-09-01T17:27:37.674Z,17.76
2022-09-01T17:30:31.956Z,17.52
2022-09-01T17:33:33.795Z,17.31
2022-09-01T17:36:33.897Z,17.10
2022-09-01T17:39:37.292Z,16.92
2022-09-01T17:42:36.624Z,16.74
2022-09-01T17:45:37.258Z,16.58
2022-09-01T17:48:43.313Z,16.42
2022-09-01T17:51:45.384Z,16.27
2022-09-01T17:54:46.575Z,16.15
2022-09-01T17:57:45.716Z,16.01
2022-09-01T18:00:47.669Z,15.89
2022-09-01T18:04:06.171Z,15.78
2022-09-01T18:07:10.565Z,15.65
2022-09-01T18:10:07.048Z,15.53
2022-09-01T18:13:03.900Z,15.42
2022-09-01T18:16:00.507Z,15.30
2022-09-01T18:18:53.971Z,15.19
2022-09-01T18:21:53.408Z,15.07
2022-09-01T18:24:45.022Z,14.93
2022-09-01T18:27:38.516Z,14.79
2022-09-01T18:30:16.626Z,14.67
2022-09-01T18:33:24.112Z,14.53
2022-09-01T18:36:30.744Z,14.39
2022-09-01T18:39:29.510Z,14.24
2022-09-01T18:42:31.710Z,14.12
2022-09-01T18:45:32.220Z,14.01
2022-09-01T18:48:39.343Z,13.90
2022-09-01T18:51:49.425Z,13.78
2022-09-01T18:54:48.793Z,13.66
2022-09-01T18:57:40.403Z,13.59
2022-09-01T19:00:42.346Z,13.51
2022-09-01T19:03:27.701Z,13.46
2022-09-01T19:06:31.704Z,13.45
2022-09-01T19:09:33.399Z,13.45
2022-09-01T19:12:35.783Z,13.43
2022-09-01T19:15:35.647Z,13.38
2022-09-01T19:18:19.435Z,13.34
2022-09-01T19:21:19.123Z,13.28
2022-09-01T19:24:14.450Z,13.20
2022-09-01T19:27:02.893Z,13.11
2022-09-01T19:29:59.052Z,13.01
2022-09-01T19:32:51.668Z,12.92
2022-09-01T19:35:46.653Z,12.82
2022-09-01T19:38:39.137Z,13.17
2022-09-01T19:41:37.502Z,14.70
2022-09-01T19:44:30.717Z,15.94
2022-09-01T19:47:35.987Z,16.76
2022-09-01T19:50:40.734Z,16.99
2022-09-01T19:53:38.795Z,16.14
2022-09-01T19:56:36.298Z,15.30
2022-09-01T19:59:46.982Z,14.73
2022-09-01T20:02:42.877Z,14.28
2022-09-01T20:05:41.453Z,13.92
2022-09-01T20:08:31.236Z,13.61
2022-09-01T20:11:36.964Z,13.31
2022-09-01T20:14:56.810Z,13.02
2022-09-01T20:17:55.641Z,12.72
2022-09-01T20:20:51.033Z,12.83
2022-09-01T20:23:51.353Z,14.11
2022-09-01T20:26:50.510Z,15.44
2022-09-01T20:29:42.209Z,16.09
2022-09-01T20:32:40.712Z,16.51
2022-09-01T20:35:40.524Z,16.47
2022-09-01T20:38:58.761Z,15.50
2022-09-01T20:41:50.412Z,14.60
2022-09-01T20:44:42.966Z,14.04
2022-09-01T20:47:35.089Z,13.55
2022-09-01T20:50:34.849Z,13.11
2022-09-01T20:53:38.295Z,12.73
2022-09-01T20:56:19.039Z,12.42
2022-09-01T20:59:19.297Z,12.58
2022-09-01T21:02:24.748Z,14.14
2022-09-01T21:05:29.368Z,15.19
2022-09-01T21:08:38.204Z,15.69
2022-09-01T21:11:34.386Z,15.68
2022-09-01T21:14:31.652Z,14.79
2022-09-01T21:17:33.460Z,13.91
2022-09-01T21:20:32.768Z,13.31
2022-09-01T21:23:26.379Z,12.86
2022-09-01T21:26:18.627Z,12.49
2022-09-01T21:29:25.530Z,12.55
2022-09-01T21:32:17.371Z,13.97
2022-09-01T21:34:50.662Z,14.92
2022-09-01T21:37:43.117Z,15.55
2022-09-01T21:40:36.207Z,15.71
2022-09-01T21:43:35.672Z,14.80
2022-09-01T21:46:28.359Z,13.87
2022-09-01T21:49:19.431Z,13.22
2022-09-01T21:52:11.568Z,12.69
2022-09-01T21:55:03.766Z,12.27
2022-09-01T21:57:57.727Z,12.27
2022-09-01T22:00:50.215Z,13.44
2022-09-01T22:03:43.764Z,14.52
2022-09-01T22:06:35.894Z,15.27
2022-09-01T22:09:28.608Z,15.74
2022-09-01T22:12:20.683Z,15.78
2022-09-01T22:15:07.994Z,14.85
2022-09-01T22:18:02.719Z,13.87
2022-09-01T22:20:48.519Z,13.16
2022-09-01T22:23:41.890Z,12.59
2022-09-01T22:26:35.859Z,12.15
2022-09-01T22:29:27.904Z,12.11
2022-09-01T22:32:23.263Z,13.27
2022-09-01T22:35:18.353Z,14.32
2022-09-01T22:38:10.504Z,14.79
2022-09-01T22:41:05.550Z,15.32
2022-09-01T22:43:59.448Z,15.49
2022-09-01T22:46:51.729Z,14.50
2022-09-01T22:49:44.774Z,13.51
2022-09-01T22:52:37.327Z,12.81
2022-09-01T22:55:30.724Z,12.27
2022-09-01T22:58:22.800Z,11.82
2022-09-01T23:01:17.773Z,11.84
2022-09-01T23:04:05.025Z,12.97
2022-09-01T23:06:57.297Z,13.91
2022-09-01T23:09:49.416Z,14.51
2022-09-01T23:12:41.567Z,15.04
2022-09-01T23:15:32.171Z,15.07
2022-09-01T23:18:25.004Z,14.08
2022-09-01T23:21:19.374Z,13.15
2022-09-01T23:24:11.495Z,12.45
2022-09-01T23:27:06.456Z,11.88
2022-09-01T23:29:58.644Z,11.78
2022-09-01T23:32:51.786Z,12.95
2022-09-01T23:35:46.136Z,13.81
2022-09-01T23:38:39.344Z,14.31
2022-09-01T23:41:34.702Z,14.61
2022-09-01T23:44:26.705Z,14.59
2022-09-01T23:47:18.842Z,13.59
2022-09-01T23:50:12.979Z,12.58
2022-09-01T23:53:05.009Z,11.82
2022-09-01T23:56:00.602Z,11.58
2022-09-01T23:58:44.069Z,12.69
